createdAt,value
2022-10-22T00:01:54.397Z,17.48
2022-10-22T00:06:56.210Z,16.83
2022-10-22T00:11:57.811Z,17.80
2022-10-22T00:17:01.063Z,16.90
2022-10-22T00:22:05.669Z,16.33
2022-10-22T00:27:09.131Z,17.55
2022-10-22T00:32:11.046Z,18.45
2022-10-22T00:37:12.686Z,17.63
2022-10-22T00:42:20.642Z,17.58
2022-10-22T00:47:23.217Z,18.25
2022-10-22T00:52:25.182Z,17.33
2022-10-22T00:57:27.624Z,17.65
2022-10-22T01:02:29.270Z,17.20
2022-10-22T01:07:31.309Z,18.92
2022-10-22T01:12:45.285Z,20.30
2022-10-22T01:17:55.911Z,19.33
2022-10-22T01:23:21.353Z,18.00
2022-10-22T01:28:41.683Z,18.73
2022-10-22T01:33:44.914Z,17.80
2022-10-22T01:38:47.184Z,20.40
2022-10-22T01:43:49.254Z,17.80
2022-10-22T01:49:03.192Z,18.67
2022-10-22T01:54:32.027Z,17.73
2022-10-22T01:59:54.983Z,19.13
2022-10-22T02:05:24.772Z,17.67
2022-10-22T02:10:27.434Z,18.13
2022-10-22T02:15:29.842Z,19.30
2022-10-22T02:20:33.630Z,18.92
2022-10-22T02:25:37.198Z,18.33
2022-10-22T02:30:42.653Z,16.20
2022-10-22T02:35:44.690Z,18.17
2022-10-22T02:40:46.707Z,17.05
2022-10-22T02:45:48.627Z,17.88
2022-10-22T02:50:50.215Z,16.73
2022-10-22T02:55:51.801Z,16.60
2022-10-22T03:00:53.578Z,18.67
2022-10-22T03:05:55.194Z,18.35
2022-10-22T03:10:56.782Z,18.30
2022-10-22T03:15:58.374Z,18.98
2022-10-22T03:21:32.555Z,14.70
2022-10-22T03:26:34.276Z,18.42
2022-10-22T03:31:35.912Z,19.17
2022-10-22T03:36:38.096Z,18.17
2022-10-22T03:41:39.695Z,17.48
2022-10-22T03:46:41.664Z,18.15
2022-10-22T03:51:43.423Z,17.55
2022-10-22T03:56:45.053Z,16.65
2022-10-22T04:01:46.651Z,17.50
2022-10-22T04:06:48.277Z,18.73
2022-10-22T04:11:49.895Z,16.88
2022-10-22T04:16:51.506Z,17.83
2022-10-22T04:21:53.145Z,20.27
2022-10-22T04:26:55.535Z,16.83
2022-10-22T04:31:57.173Z,18.38
2022-10-22T04:36:58.886Z,18.80
2022-10-22T04:42:00.560Z,17.58
2022-10-22T04:47:02.269Z,18.13
2022-10-22T04:52:03.965Z,19.65
2022-10-22T04:57:05.608Z,20.08
2022-10-22T05:02:07.245Z,18.98
2022-10-22T05:07:08.886Z,17.30
2022-10-22T05:12:10.498Z,16.60
2022-10-22T05:17:12.170Z,18.83
2022-10-22T05:22:13.755Z,17.33
2022-10-22T05:27:15.368Z,18.10
2022-10-22T05:32:16.989Z,15.98
2022-10-22T05:37:18.613Z,18.13
2022-10-22T05:42:20.187Z,17.23
2022-10-22T05:47:21.993Z,17.83
2022-10-22T05:52:24.407Z,17.77
2022-10-22T05:57:26.011Z,15.38
2022-10-22T06:02:27.710Z,15.85
2022-10-22T06:07:29.362Z,15.80
2022-10-22T06:12:30.969Z,15.15
2022-10-22T06:17:32.635Z,16.17
2022-10-22T06:22:34.328Z,15.68
2022-10-22T06:27:35.917Z,15.77
2022-10-22T06:32:37.667Z,15.30
2022-10-22T06:37:39.854Z,15.02
2022-10-22T06:42:41.952Z,14.57
2022-10-22T06:47:44.110Z,16.92
2022-10-22T06:52:45.891Z,16.92
2022-10-22T06:57:47.530Z,15.82
2022-10-22T07:02:56.459Z,14.15
2022-10-22T07:08:00.846Z,14.48
2022-10-22T07:13:02.555Z,15.27
2022-10-22T07:18:04.766Z,15.85
2022-10-22T07:23:06.381Z,15.85
2022-10-22T07:28:08.230Z,15.07
2022-10-22T07:33:10.063Z,14.75
2022-10-22T07:38:11.688Z,14.82
2022-10-22T07:43:13.272Z,16.83
2022-10-22T07:48:15.337Z,14.65
2022-10-22T07:53:17.833Z,15.55
2022-10-22T07:58:19.937Z,14.38
2022-10-22T08:03:21.558Z,15.73
2022-10-22T08:08:25.943Z,16.42
2022-10-22T08:13:30.715Z,13.13
2022-10-22T08:18:32.414Z,16.40
2022-10-22T08:23:34.447Z,11.27
2022-10-22T08:28:37.171Z,16.60
2022-10-22T08:33:39.460Z,16.95
2022-10-22T08:38:41.058Z,17.58
2022-10-22T08:44:19.824Z,13.23
2022-10-22T08:49:26.787Z,12.73
2022-10-22T08:54:37.873Z,8.77
2022-10-22T08:59:52.792Z,11.80
2022-10-22T09:05:02.692Z,11.05
2022-10-22T09:10:06.108Z,11.90
2022-10-22T09:15:13.592Z,7.55
2022-10-22T09:20:33.358Z,8.50
2022-10-22T09:25:37.226Z,9.18
2022-10-22T09:30:39.933Z,8.85
2022-10-22T09:35:51.434Z,8.98
2022-10-22T09:40:55.398Z,9.30
2022-10-22T09:46:03.110Z,10.60
2022-10-22T09:51:16.871Z,10.60
2022-10-22T09:56:29.415Z,9.90
2022-10-22T10:01:38.616Z,9.38
2022-10-22T10:06:42.914Z,8.68
2022-10-22T10:12:02.835Z,9.20
2022-10-22T10:17:13.523Z,9.10
2022-10-22T10:22:33.759Z,8.80
2022-10-22T10:27:38.807Z,8.57
2022-10-22T10:33:06.089Z,7.53
2022-10-22T10:38:17.538Z,6.50
2022-10-22T10:43:29.998Z,6.68
2022-10-22T10:48:57.032Z,7.28
2022-10-22T10:53:58.615Z,5.03
2022-10-22T10:59:10.050Z,5.30
2022-10-22T11:04:23.835Z,4.40
2022-10-22T11:09:28.906Z,6.25
2022-10-22T11:14:37.538Z,6.78
2022-10-22T11:19:53.775Z,4.82
2022-10-22T11:25:12.844Z,3.60
2022-10-22T11:30:20.385Z,7.80
2022-10-22T11:35:28.330Z,3.83
2022-10-22T11:40:32.373Z,3.15
2022-10-22T11:45:37.499Z,3.08
2022-10-22T11:50:53.041Z,0.65
2022-10-22T11:56:27.304Z,0.52
2022-10-22T12:01:41.897Z,0.98
2022-10-22T12:06:55.381Z,0.30
2022-10-22T12:12:04.330Z,0.40
2022-10-22T12:17:12.253Z,0.38
2022-10-22T12:22:28.166Z,0.47
2022-10-22T12:27:41.069Z,0.47
2022-10-22T12:32:42.975Z,0.63
2022-10-22T12:37:44.989Z,0.70
2022-10-22T12:42:48.988Z,0.55
2022-10-22T12:47:53.023Z,0.68
2022-10-22T12:52:55.696Z,0.68
2022-10-22T12:57:57.413Z,0.52
2022-10-22T13:03:01.699Z,0.60
2022-10-22T13:08:09.077Z,0.52
2022-10-22T13:13:45.660Z,1.00
2022-10-22T13:18:48.018Z,1.27
2022-10-22T13:23:55.126Z,0.40
2022-10-22T13:29:02.906Z,0.65
2022-10-22T13:34:11.775Z,0.55
2022-10-22T13:39:22.968Z,1.25
2022-10-22T13:44:25.411Z,0.50
2022-10-22T13:49:29.826Z,0.50
2022-10-22T13:54:34.899Z,0.60
2022-10-22T13:59:36.636Z,0.52
2022-10-22T14:04:40.358Z,0.40
2022-10-22T14:09:46.860Z,0.47
2022-10-22T14:14:48.503Z,15.20
2022-10-22T14:19:50.226Z,0.50
2022-10-22T14:24:52.552Z,0.57
2022-10-22T14:29:59.312Z,0.68
2022-10-22T14:35:03.977Z,0.63
2022-10-22T14:40:08.698Z,0.55
2022-10-22T14:45:21.080Z,1.00
2022-10-22T14:50:26.062Z,0.68
2022-10-22T14:55:36.366Z,0.43
2022-10-22T15:00:41.607Z,0.40
2022-10-22T15:05:46.609Z,0.65
2022-10-22T15:11:03.759Z,0.40
2022-10-22T15:16:13.607Z,0.45
2022-10-22T15:21:17.481Z,0.40
2022-10-22T15:26:19.114Z,0.68
2022-10-22T15:31:43.296Z,0.50
2022-10-22T15:36:44.890Z,0.40
2022-10-22T15:41:47.322Z,0.22
2022-10-22T15:46:54.777Z,0.20
2022-10-22T15:52:20.571Z,0.30
2022-10-22T15:57:24.263Z,0.47
2022-10-22T16:02:25.883Z,0.45
2022-10-22T16:07:27.489Z,0.85
2022-10-22T16:12:29.276Z,0.32
2022-10-22T16:17:30.881Z,0.55
2022-10-22T16:22:33.462Z,0.60
2022-10-22T16:27:35.122Z,2.72
2022-10-22T16:32:36.712Z,1.10
2022-10-22T16:37:39.222Z,1.17
2022-10-22T16:42:42.489Z,1.08
2022-10-22T16:47:46.891Z,2.13
2022-10-22T16:52:48.477Z,1.38
2022-10-22T16:57:53.467Z,2.38
2022-10-22T17:02:55.197Z,2.05
2022-10-22T17:07:56.786Z,4.75
2022-10-22T17:12:58.437Z,4.15
2022-10-22T17:18:00.549Z,13.23
2022-10-22T17:23:02.144Z,7.18
2022-10-22T17:28:03.853Z,7.63
2022-10-22T17:33:06.782Z,4.97
2022-10-22T17:38:10.904Z,7.53
2022-10-22T17:43:12.495Z,7.55
2022-10-22T17:48:14.095Z,4.22
2022-10-22T17:53:15.707Z,3.10
2022-10-22T17:58:17.634Z,4.15
2022-10-22T18:03:19.623Z,3.00
2022-10-22T18:08:24.073Z,4.72
2022-10-22T18:13:25.785Z,2.63
2022-10-22T18:18:27.566Z,2.55
2022-10-22T18:23:29.232Z,5.22
2022-10-22T18:28:30.865Z,11.82
2022-10-22T18:33:32.873Z,10.60
2022-10-22T18:38:34.935Z,10.98
2022-10-22T18:43:37.068Z,12.75
2022-10-22T18:48:38.735Z,9.57
2022-10-22T18:53:40.700Z,11.40
2022-10-22T18:58:46.107Z,13.20
2022-10-22T19:03:49.774Z,11.25
2022-10-22T19:08:51.563Z,11.70
2022-10-22T19:13:53.955Z,8.35
2022-10-22T19:19:06.809Z,7.28
2022-10-22T19:24:09.934Z,12.10
2022-10-22T19:29:11.684Z,11.95
2022-10-22T19:34:17.605Z,10.77
2022-10-22T19:39:19.338Z,6.45
2022-10-22T19:44:21.004Z,5.78
2022-10-22T19:49:23.133Z,5.20
2022-10-22T19:54:28.323Z,3.88
2022-10-22T19:59:32.078Z,3.30
2022-10-22T20:04:37.090Z,4.38
2022-10-22T20:09:38.728Z,3.08
2022-10-22T20:14:40.469Z,3.40
2022-10-22T20:19:42.131Z,5.13
2022-10-22T20:24:44.637Z,8.13
2022-10-22T20:29:46.244Z,10.35
2022-10-22T20:34:47.854Z,7.80
2022-10-22T20:39:50.074Z,7.45
2022-10-22T20:44:51.657Z,11.32
2022-10-22T20:49:53.367Z,7.03
2022-10-22T20:54:54.951Z,9.27
2022-10-22T20:59:57.494Z,9.63
2022-10-22T21:04:59.176Z,7.60
2022-10-22T21:10:00.837Z,6.05
2022-10-22T21:15:02.531Z,11.50
2022-10-22T21:20:04.498Z,10.73
2022-10-22T21:25:06.567Z,9.43
2022-10-22T21:30:08.566Z,8.70
2022-10-22T21:35:10.161Z,9.68
2022-10-22T21:40:12.252Z,9.77
2022-10-22T21:45:16.455Z,10.38
2022-10-22T21:50:20.369Z,10.20
2022-10-22T21:55:24.054Z,9.77
2022-10-22T22:00:25.940Z,9.70
2022-10-22T22:05:28.343Z,7.95
2022-10-22T22:10:30.049Z,8.45
2022-10-22T22:15:31.701Z,8.43
2022-10-22T22:20:33.378Z,9.10
2022-10-22T22:25:35.116Z,8.60
2022-10-22T22:30:36.830Z,7.63
2022-10-22T22:40:41.269Z,9.05
2022-10-22T22:45:42.884Z,9.88
2022-10-22T22:50:44.529Z,10.02
2022-10-22T22:55:46.164Z,9.93
2022-10-22T23:00:48.181Z,9.70
2022-10-22T23:05:49.905Z,9.10
2022-10-22T23:10:51.510Z,8.32
2022-10-22T23:15:53.103Z,10.25
2022-10-22T23:20:54.705Z,8.40
2022-10-22T23:25:56.366Z,10.63
2022-10-22T23:30:58.078Z,10.80
2022-10-22T23:36:02.973Z,8.77
2022-10-22T23:41:04.754Z,11.48
2022-10-22T23:46:08.503Z,9.23
2022-10-22T23:51:15.234Z,9.10
2022-10-22T23:56:18.063Z,9.70
